createdAt,value
2022-09-01T00:02:52.235Z,12.80
2022-09-01T00:07:58.746Z,12.70
2022-09-01T00:13:02.614Z,12.70
2022-09-01T00:18:07.515Z,12.60
2022-09-01T00:23:11.336Z,12.60
2022-09-01T00:28:14.617Z,12.60
2022-09-01T00:33:19.160Z,12.70
2022-09-01T00:38:22.489Z,12.80
2022-09-01T00:43:38.698Z,12.90
2022-09-01T00:48:43.478Z,12.80
2022-09-01T00:53:47.486Z,12.80
2022-09-01T00:58:51.839Z,12.80
2022-09-01T01:03:57.756Z,12.90
2022-09-01T01:09:02.120Z,12.90
2022-09-01T01:14:12.272Z,12.80
2022-09-01T01:19:39.071Z,12.70
2022-09-01T01:24:44.401Z,12.70
2022-09-01T01:29:47.806Z,12.70
2022-09-01T01:34:51.121Z,12.70
2022-09-01T01:39:56.253Z,12.70
2022-09-01T01:44:59.615Z,12.60
2022-09-01T01:50:04.339Z,12.50
2022-09-01T01:55:12.684Z,12.40
2022-09-01T02:00:19.875Z,12.40
2022-09-01T02:05:34.161Z,12.30
2022-09-01T02:10:43.015Z,12.30
2022-09-01T02:15:49.220Z,12.30
2022-09-01T02:20:54.150Z,12.30
2022-09-01T02:26:15.999Z,12.50
2022-09-01T02:31:21.067Z,12.50
2022-09-01T02:36:25.938Z,12.40
2022-09-01T02:41:34.684Z,12.30
2022-09-01T02:46:41.943Z,12.20
2022-09-01T02:51:47.409Z,12.10
2022-09-01T02:56:54.602Z,12.10
2022-09-01T03:01:58.335Z,12.00
2022-09-01T03:07:02.005Z,11.90
2022-09-01T03:12:07.273Z,11.80
2022-09-01T03:17:10.561Z,11.80
2022-09-01T03:22:13.750Z,11.70
2022-09-01T03:27:18.385Z,11.70
2022-09-01T03:32:21.658Z,11.70
2022-09-01T03:37:24.870Z,11.70
2022-09-01T03:42:32.519Z,11.90
2022-09-01T03:47:40.790Z,12.10
2022-09-01T03:52:45.427Z,12.40
2022-09-01T03:57:50.849Z,12.50
2022-09-01T04:02:56.966Z,12.60
2022-09-01T04:08:04.062Z,12.60
2022-09-01T04:13:11.827Z,12.70
2022-09-01T04:18:21.588Z,12.70
2022-09-01T04:23:30.127Z,12.60
2022-09-01T04:28:37.478Z,12.40
2022-09-01T04:33:40.848Z,12.40
2022-09-01T04:38:44.100Z,12.30
2022-09-01T04:43:51.924Z,12.20
2022-09-01T04:48:58.612Z,12.10
2022-09-01T04:54:03.750Z,12.00
2022-09-01T04:59:10.952Z,12.00
2022-09-01T05:04:19.967Z,12.00
2022-09-01T05:09:25.267Z,12.00
2022-09-01T05:14:31.070Z,12.10
2022-09-01T05:19:34.432Z,12.30
2022-09-01T05:24:41.878Z,12.30
2022-09-01T05:29:47.048Z,12.40
2022-09-01T05:34:53.615Z,12.50
2022-09-01T05:39:56.877Z,12.50
2022-09-01T05:45:02.305Z,12.50
2022-09-01T05:50:05.905Z,12.70
2022-09-01T05:55:10.217Z,13.20
2022-09-01T06:00:18.116Z,13.60
2022-09-01T06:05:21.770Z,13.90
2022-09-01T06:10:25.307Z,14.00
2022-09-01T06:15:30.979Z,14.10
2022-09-01T06:20:36.572Z,14.30
2022-09-01T06:25:45.194Z,14.10
2022-09-01T06:30:51.083Z,14.20
2022-09-01T06:35:55.999Z,14.70
2022-09-01T06:41:04.364Z,15.20
2022-09-01T06:46:09.894Z,15.60
2022-09-01T06:51:15.895Z,15.80
2022-09-01T06:56:21.358Z,16.20
2022-09-01T07:01:27.864Z,16.30
2022-09-01T07:17:23.588Z,15.90
2022-09-01T07:27:50.537Z,16.10
2022-09-01T07:32:55.760Z,17.20
2022-09-01T07:43:27.296Z,20.30
2022-09-01T07:48:36.466Z,19.20
2022-09-01T07:53:57.924Z,18.90
2022-09-01T07:59:02.301Z,20.10
2022-09-01T08:04:07.386Z,21.30
2022-09-01T08:09:11.747Z,22.40
2022-09-01T08:14:18.243Z,23.70
2022-09-01T08:24:50.841Z,26.10
2022-09-01T08:29:54.153Z,27.20
2022-09-01T08:34:58.990Z,28.60
2022-09-01T08:40:04.041Z,28.00
2022-09-01T08:45:16.756Z,27.40
2022-09-01T08:50:25.130Z,27.80
2022-09-01T08:55:35.411Z,27.30
2022-09-01T09:00:50.575Z,26.50
2022-09-01T09:06:08.173Z,27.20
2022-09-01T09:11:21.965Z,28.40
2022-09-01T09:16:29.026Z,28.50
2022-09-01T09:21:37.093Z,26.50
2022-09-01T09:26:43.549Z,26.90
2022-09-01T09:31:50.778Z,25.70
2022-09-01T09:36:57.336Z,24.50
2022-09-01T09:42:09.135Z,23.80
2022-09-01T09:47:43.058Z,22.90
2022-09-01T09:52:49.552Z,22.70
2022-09-01T09:57:57.969Z,23.30
2022-09-01T10:03:10.031Z,25.50
2022-09-01T10:08:39.829Z,25.40
2022-09-01T10:13:44.777Z,24.20
2022-09-01T10:18:51.354Z,24.10
2022-09-01T10:24:17.046Z,24.40
2022-09-01T10:29:25.707Z,24.20
2022-09-01T10:34:34.626Z,24.20
2022-09-01T10:40:12.919Z,23.80
2022-09-01T10:45:33.595Z,24.20
2022-09-01T10:50:37.311Z,23.40
2022-09-01T10:55:46.028Z,24.40
2022-09-01T11:12:42.041Z,24.00
2022-09-01T11:17:58.780Z,24.60
2022-09-01T11:23:05.407Z,23.70
2022-09-01T11:28:38.389Z,23.60
2022-09-01T11:33:51.434Z,23.80
2022-09-01T11:38:58.047Z,23.10
2022-09-01T11:44:03.237Z,22.80
2022-09-01T11:49:22.315Z,22.80
2022-09-01T11:54:26.952Z,24.20
2022-09-01T11:59:35.605Z,24.10
2022-09-01T12:04:41.327Z,23.60
2022-09-01T12:09:48.679Z,23.90
2022-09-01T12:15:05.845Z,24.60
2022-09-01T12:20:30.086Z,23.90
2022-09-01T12:25:35.557Z,23.30
2022-09-01T12:30:40.741Z,23.20
2022-09-01T12:35:45.708Z,23.40
2022-09-01T12:40:52.492Z,23.50
2022-09-01T12:45:57.573Z,23.40
2022-09-01T12:51:05.211Z,23.60
2022-09-01T12:56:26.913Z,23.70
2022-09-01T13:01:33.250Z,24.20
2022-09-01T13:06:38.313Z,24.50
2022-09-01T13:17:06.085Z,23.90
2022-09-01T13:22:18.946Z,24.40
2022-09-01T13:27:22.856Z,24.80
2022-09-01T13:32:26.356Z,24.80
2022-09-01T13:37:32.093Z,24.80
2022-09-01T13:42:37.269Z,24.30
2022-09-01T13:53:06.272Z,23.00
2022-09-01T13:58:09.931Z,22.60
2022-09-01T14:03:18.042Z,22.50
2022-09-01T14:08:23.825Z,22.30
2022-09-01T14:13:27.985Z,22.10
2022-09-01T14:18:36.854Z,21.80
2022-09-01T14:23:41.766Z,21.90
2022-09-01T14:28:48.632Z,22.30
2022-09-01T14:33:52.295Z,22.80
2022-09-01T14:38:56.939Z,23.10
2022-09-01T14:44:03.757Z,23.50
2022-09-01T14:49:07.866Z,23.80
2022-09-01T14:54:12.478Z,24.20
2022-09-01T14:59:15.736Z,24.00
2022-09-01T15:04:19.011Z,23.50
2022-09-01T15:09:25.440Z,23.60
2022-09-01T15:14:31.039Z,23.60
2022-09-01T15:19:34.311Z,23.30
2022-09-01T15:24:40.739Z,23.20
2022-09-01T15:29:48.087Z,22.80
2022-09-01T15:34:55.123Z,22.10
2022-09-01T15:40:00.007Z,21.70
2022-09-01T15:45:08.918Z,21.80
2022-09-01T15:50:21.625Z,21.90
2022-09-01T15:55:33.767Z,22.00
2022-09-01T16:00:37.678Z,22.10
2022-09-01T16:05:42.779Z,21.90
2022-09-01T16:10:48.805Z,22.00
2022-09-01T16:16:02.613Z,21.80
2022-09-01T16:21:17.830Z,21.50
2022-09-01T16:26:23.928Z,21.40
2022-09-01T16:31:30.517Z,21.20
2022-09-01T16:36:42.701Z,21.10
2022-09-01T16:41:56.270Z,21.10
2022-09-01T16:47:09.118Z,21.00
2022-09-01T16:52:25.535Z,20.80
2022-09-01T16:57:39.019Z,20.70
2022-09-01T17:02:50.378Z,20.70
2022-09-01T17:07:58.168Z,20.50
2022-09-01T17:13:17.371Z,20.40
2022-09-01T17:18:41.294Z,20.30
2022-09-01T17:23:54.435Z,20.20
2022-09-01T17:29:03.480Z,20.10
2022-09-01T17:34:26.332Z,19.90
2022-09-01T17:39:45.826Z,19.80
2022-09-01T17:44:56.560Z,19.60
2022-09-01T17:50:08.373Z,19.40
2022-09-01T17:55:20.020Z,19.30
2022-09-01T18:00:26.831Z,19.20
2022-09-01T18:05:35.310Z,19.10
2022-09-01T18:10:47.263Z,19.00
2022-09-01T18:16:00.358Z,18.60
2022-09-01T18:21:09.182Z,18.20
2022-09-01T18:26:21.577Z,17.90
2022-09-01T18:31:56.931Z,17.70
2022-09-01T18:37:09.097Z,17.80
2022-09-01T18:42:25.559Z,17.80
2022-09-01T18:47:36.132Z,17.60
2022-09-01T18:53:03.365Z,17.40
2022-09-01T18:58:11.715Z,17.30
2022-09-01T19:03:27.417Z,17.10
2022-09-01T19:08:47.000Z,17.00
2022-09-01T19:14:00.399Z,16.90
2022-09-01T19:19:19.890Z,16.80
2022-09-01T19:24:28.524Z,16.50
2022-09-01T19:29:38.053Z,16.40
2022-09-01T19:34:46.801Z,16.10
2022-09-01T19:39:54.599Z,15.90
2022-09-01T19:45:05.456Z,15.80
2022-09-01T19:50:21.635Z,15.60
2022-09-01T19:55:31.798Z,15.60
2022-09-01T20:00:51.197Z,15.50
2022-09-01T20:06:02.364Z,15.40
2022-09-01T20:11:12.079Z,15.40
2022-09-01T20:16:25.582Z,15.30
2022-09-01T20:21:31.466Z,15.20
2022-09-01T20:26:40.728Z,15.10
2022-09-01T20:31:47.135Z,15.00
2022-09-01T20:36:55.834Z,14.90
2022-09-01T20:42:04.915Z,14.90
2022-09-01T20:47:09.456Z,15.00
2022-09-01T20:52:21.835Z,14.90
2022-09-01T20:57:39.248Z,14.80
2022-09-01T21:02:51.898Z,14.60
2022-09-01T21:08:14.877Z,14.50
2022-09-01T21:13:29.755Z,14.30
2022-09-01T21:18:52.704Z,14.30
2022-09-01T21:23:58.668Z,14.20
2022-09-01T21:29:13.993Z,14.10
2022-09-01T21:34:17.290Z,14.10
2022-09-01T21:39:22.091Z,14.10
2022-09-01T21:44:27.639Z,14.20
2022-09-01T21:49:30.913Z,14.20
2022-09-01T21:54:38.948Z,14.10
2022-09-01T21:59:42.280Z,14.00
2022-09-01T22:04:51.617Z,14.00
2022-09-01T22:09:57.847Z,14.00
2022-09-01T22:15:02.930Z,14.00
2022-09-01T22:20:09.082Z,13.90
2022-09-01T22:25:24.372Z,13.80
2022-09-01T22:30:28.935Z,13.70
2022-09-01T22:35:32.407Z,13.70
2022-09-01T22:40:37.156Z,13.70
2022-09-01T22:45:42.961Z,13.70
2022-09-01T22:50:51.577Z,13.60
2022-09-01T22:55:57.448Z,13.60
2022-09-01T23:01:00.903Z,13.60
2022-09-01T23:06:10.459Z,13.70
2022-09-01T23:11:15.507Z,13.70
2022-09-01T23:16:19.135Z,13.90
2022-09-01T23:21:26.638Z,14.30
2022-09-01T23:26:33.043Z,14.20
2022-09-01T23:31:38.380Z,14.20
2022-09-01T23:36:42.509Z,14.40
2022-09-01T23:41:48.554Z,14.40
2022-09-01T23:46:51.857Z,14.40
2022-09-01T23:51:55.962Z,14.30
2022-09-01T23:57:00.907Z,14.40
